sensor_id;sensor_type;location;lat;lon;timestamp;pressure;altitude;pressure_sealevel;temperature;humidity
59987;BME280;46181;51.498;5.392;2023-06-26T05:18:42;101338.7;;;21.55;64.42969
59987;BME280;46181;51.498;5.392;2023-06-26T05:23:13;101342.8;;;22.9;61.74707
59987;BME280;46181;51.498;5.392;2023-06-26T05:27:43;101351.7;;;24.16;58.57813
59987;BME280;46181;51.498;5.392;2023-06-26T05:32:14;101354.6;;;25.18;55.84766
59987;BME280;46181;51.498;5.392;2023-06-26T05:36:43;101358.2;;;25.84;53.50391
59987;BME280;46181;51.498;5.392;2023-06-26T05:41:13;101366.3;;;26.23;51.40039
59987;BME280;46181;51.498;5.392;2023-06-26T05:45:42;101371.4;;;26.41;50.43848
59987;BME280;46181;51.498;5.392;2023-06-26T05:50:14;101375.2;;;26.54;49.98438
59987;BME280;46181;51.498;5.392;2023-06-26T05:54:43;101376.7;;;26.76;48.98926
59987;BME280;46181;51.498;5.392;2023-06-26T05:59:14;101387.4;;;26.88;48.01855
59987;BME280;46181;51.498;5.392;2023-06-26T06:03:42;101387.5;;;27.06;47.85059
59987;BME280;46181;51.498;5.392;2023-06-26T06:08:13;101392.4;;;27.36;47.07324
59987;BME280;46181;51.498;5.392;2023-06-26T06:12:42;101402;;;27.52;46.11523
59987;BME280;46181;51.498;5.392;2023-06-26T06:17:12;101405;;;27.47;45.65137
59987;BME280;46181;51.498;5.392;2023-06-26T06:21:42;101409.9;;;27.48;45.47754
59987;BME280;46181;51.498;5.392;2023-06-26T06:26:13;101413.5;;;27.57;44.64063
59987;BME280;46181;51.498;5.392;2023-06-26T06:30:42;101416.5;;;27.7;44.47754
59987;BME280;46181;51.498;5.392;2023-06-26T06:35:13;101414.5;;;27.93;44.20605
59987;BME280;46181;51.498;5.392;2023-06-26T06:39:42;101422.9;;;28.18;43.37207
59987;BME280;46181;51.498;5.392;2023-06-26T06:44:12;101434.3;;;28.29;42.47559
59987;BME280;46181;51.498;5.392;2023-06-26T06:48:42;101451.1;;;28.34;42.08008
59987;BME280;46181;51.498;5.392;2023-06-26T06:53:12;101452;;;28.4;41.88477
59987;BME280;46181;51.498;5.392;2023-06-26T06:57:43;101451.5;;;28.54;41.88672
59987;BME280;46181;51.498;5.392;2023-06-26T07:02:13;101461.1;;;28.79;41.47363
59987;BME280;46181;51.498;5.392;2023-06-26T07:06:42;101477.9;;;29.14;40.70313
59987;BME280;46181;51.498;5.392;2023-06-26T07:11:13;101487.5;;;29.1;40.16895
59987;BME280;46181;51.498;5.392;2023-06-26T07:15:42;101483.8;;;29.16;40.24512
59987;BME280;46181;51.498;5.392;2023-06-26T07:20:13;101488.4;;;29.39;39.89844
59987;BME280;46181;51.498;5.392;2023-06-26T07:24:42;101498.5;;;29.52;39.32031
59987;BME280;46181;51.498;5.392;2023-06-26T07:29:12;101503.2;;;29.66;38.87109
59987;BME280;46181;51.498;5.392;2023-06-26T07:33:42;101515.9;;;29.54;38.81348
59987;BME280;46181;51.498;5.392;2023-06-26T07:38:12;101521.4;;;29.75;38.79688
59987;BME280;46181;51.498;5.392;2023-06-26T07:42:42;101521.6;;;29.91;38.57324
59987;BME280;46181;51.498;5.392;2023-06-26T07:47:13;101527.4;;;30;37.97852
59987;BME280;46181;51.498;5.392;2023-06-26T07:51:42;101529.1;;;29.96;37.89063
59987;BME280;46181;51.498;5.392;2023-06-26T07:56:13;101535.2;;;29.93;37.20215
59987;BME280;46181;51.498;5.392;2023-06-26T08:00:42;101533.4;;;29.83;37.16992
59987;BME280;46181;51.498;5.392;2023-06-26T08:05:13;101541.3;;;30.1;36.71875
59987;BME280;46181;51.498;5.392;2023-06-26T08:09:42;101536.5;;;30.52;36.4209
59987;BME280;46181;51.498;5.392;2023-06-26T08:14:12;101558.9;;;30.85;34.03906
59987;BME280;46181;51.498;5.392;2023-06-26T08:18:42;101557.5;;;30.52;33.23145
59987;BME280;46181;51.498;5.392;2023-06-26T08:23:13;101554.9;;;29.93;33.23535
59987;BME280;46181;51.498;5.392;2023-06-26T08:27:42;101564.5;;;29.71;34.65234
59987;BME280;46181;51.498;5.392;2023-06-26T08:32:13;101559.8;;;29.88;34.67773
59987;BME280;46181;51.498;5.392;2023-06-26T08:36:43;101565.6;;;30.03;34.73633
59987;BME280;46181;51.498;5.392;2023-06-26T08:41:12;101561.1;;;30.19;34.45215
59987;BME280;46181;51.498;5.392;2023-06-26T08:45:42;101562.3;;;30.42;33.58008
59987;BME280;46181;51.498;5.392;2023-06-26T08:50:16;101568.4;;;30.48;33.27637
59987;BME280;46181;51.498;5.392;2023-06-26T08:54:50;101575.8;;;30.62;33.47656
59987;BME280;46181;51.498;5.392;2023-06-26T08:59:13;101575;;;30.88;32.81934
59987;BME280;46181;51.498;5.392;2023-06-26T09:03:43;101588.3;;;31.02;31.57031
59987;BME280;46181;51.498;5.392;2023-06-26T09:08:13;101588.1;;;31.09;31.12305
59987;BME280;46181;51.498;5.392;2023-06-26T09:12:45;101594.4;;;31.15;30.79395
59987;BME280;46181;51.498;5.392;2023-06-26T09:17:12;101596.9;;;31.24;31.10938
59987;BME280;46181;51.498;5.392;2023-06-26T09:21:43;101603;;;31.27;31.00391
59987;BME280;46181;51.498;5.392;2023-06-26T09:26:13;101596.7;;;31.19;30.86816
59987;BME280;46181;51.498;5.392;2023-06-26T09:30:44;101608.1;;;31.24;30.05078
59987;BME280;46181;51.498;5.392;2023-06-26T09:35:13;101612.9;;;31.28;29.86328
59987;BME280;46181;51.498;5.392;2023-06-26T09:39:43;101615.4;;;31.35;29.70215
59987;BME280;46181;51.498;5.392;2023-06-26T09:44:14;101623;;;31.27;29.43457
59987;BME280;46181;51.498;5.392;2023-06-26T09:48:43;101637.3;;;31.08;29.32715
59987;BME280;46181;51.498;5.392;2023-06-26T09:53:15;101635.7;;;31.3;29.4248
59987;BME280;46181;51.498;5.392;2023-06-26T09:57:43;101640.2;;;31.68;28.94922
59987;BME280;46181;51.498;5.392;2023-06-26T10:02:13;101631.2;;;31.98;27.91992
59987;BME280;46181;51.498;5.392;2023-06-26T10:06:45;101634.5;;;32.05;26.89844
59987;BME280;46181;51.498;5.392;2023-06-26T10:11:14;101655.9;;;32;25.92969
59987;BME280;46181;51.498;5.392;2023-06-26T10:15:43;101659.8;;;31.78;25.76172
59987;BME280;46181;51.498;5.392;2023-06-26T10:20:15;101657.1;;;31.54;26.83203
59987;BME280;46181;51.498;5.392;2023-06-26T10:24:44;101661.1;;;31.72;25.96094
59987;BME280;46181;51.498;5.392;2023-06-26T10:29:13;101651.4;;;31.72;26.08008
59987;BME280;46181;51.498;5.392;2023-06-26T10:33:43;101656.2;;;31.57;26.40527
59987;BME280;46181;51.498;5.392;2023-06-26T10:38:13;101662.8;;;31.36;26.75098
59987;BME280;46181;51.498;5.392;2023-06-26T10:42:49;101668.7;;;30.99;26.83594
59987;BME280;46181;51.498;5.392;2023-06-26T10:47:28;101676.2;;;30.71;26.9502
59987;BME280;46181;51.498;5.392;2023-06-26T10:51:43;101677.3;;;30.78;26.82324
59987;BME280;46181;51.498;5.392;2023-06-26T10:56:13;101669;;;30.98;25.9668
59987;BME280;46181;51.498;5.392;2023-06-26T11:00:49;101666.2;;;30.87;25.80566
59987;BME280;46181;51.498;5.392;2023-06-26T11:05:14;101698.1;;;30.98;25.78809
59987;BME280;46181;51.498;5.392;2023-06-26T11:10:02;101690.4;;;30.82;26.43359
59987;BME280;46181;51.498;5.392;2023-06-26T11:14:13;101679.8;;;31.29;26.74707
59987;BME280;46181;51.498;5.392;2023-06-26T11:18:43;101698.3;;;31.52;25.13965
59987;BME280;46181;51.498;5.392;2023-06-26T11:23:13;101695.5;;;31.63;24.65723
59987;BME280;46181;51.498;5.392;2023-06-26T11:27:46;101700.6;;;31.95;24.60254
59987;BME280;46181;51.498;5.392;2023-06-26T11:32:13;101700.9;;;32.31;24.37207
59987;BME280;46181;51.498;5.392;2023-06-26T11:36:43;101699.2;;;32.67;24.03223
59987;BME280;46181;51.498;5.392;2023-06-26T11:41:16;101714.7;;;32.77;24.55078
59987;BME280;46181;51.498;5.392;2023-06-26T11:45:42;101731.3;;;32.67;24.82129
59987;BME280;46181;51.498;5.392;2023-06-26T11:50:18;101727.5;;;32.11;24.87402
59987;BME280;46181;51.498;5.392;2023-06-26T11:54:43;101741.4;;;31.97;24.97363
59987;BME280;46181;51.498;5.392;2023-06-26T11:59:13;101743.7;;;31.99;24.49707
59987;BME280;46181;51.498;5.392;2023-06-26T12:03:43;101739.4;;;31.84;23.98828
59987;BME280;46181;51.498;5.392;2023-06-26T12:08:13;101764.3;;;31.82;23.7373
59987;BME280;46181;51.498;5.392;2023-06-26T12:12:43;101748.7;;;31.86;24.22754
59987;BME280;46181;51.498;5.392;2023-06-26T12:17:18;101754.8;;;32.01;24.76074
59987;BME280;46181;51.498;5.392;2023-06-26T12:21:53;101762.8;;;32.06;24.76367
59987;BME280;46181;51.498;5.392;2023-06-26T12:26:25;101753.4;;;32.36;24.86426
59987;BME280;46181;51.498;5.392;2023-06-26T12:30:44;101753.1;;;32.76;25.06445
59987;BME280;46181;51.498;5.392;2023-06-26T12:35:13;101759.1;;;32.74;24.78906
59987;BME280;46181;51.498;5.392;2023-06-26T12:39:54;101756.3;;;32.48;24.75098
59987;BME280;46181;51.498;5.392;2023-06-26T12:44:19;101755.4;;;32.51;24.74023
59987;BME280;46181;51.498;5.392;2023-06-26T12:48:54;101760.5;;;32.5;23.85547
59987;BME280;46181;51.498;5.392;2023-06-26T12:53:12;101764.3;;;32.36;23.15625
59987;BME280;46181;51.498;5.392;2023-06-26T12:57:42;101758.7;;;32.51;23.48535
59987;BME280;46181;51.498;5.392;2023-06-26T13:02:13;101766.7;;;32.95;23.16211
59987;BME280;46181;51.498;5.392;2023-06-26T13:06:43;101771;;;33.08;23.22852
59987;BME280;46181;51.498;5.392;2023-06-26T13:11:13;101768.9;;;33.08;23.2168
59987;BME280;46181;51.498;5.392;2023-06-26T13:15:43;101769;;;32.78;23.0459
59987;BME280;46181;51.498;5.392;2023-06-26T13:20:14;101756;;;32.76;23.43945
59987;BME280;46181;51.498;5.392;2023-06-26T13:24:43;101763.4;;;33.11;23.70801
59987;BME280;46181;51.498;5.392;2023-06-26T13:29:13;101766.4;;;33.19;23.40137
59987;BME280;46181;51.498;5.392;2023-06-26T13:33:43;101778.1;;;33.03;23.74023
59987;BME280;46181;51.498;5.392;2023-06-26T13:38:13;101785.3;;;32.92;23.85352
59987;BME280;46181;51.498;5.392;2023-06-26T13:42:43;101780;;;32.77;23.4873
59987;BME280;46181;51.498;5.392;2023-06-26T13:47:13;101776.7;;;32.07;24.50195
59987;BME280;46181;51.498;5.392;2023-06-26T13:51:43;101770.8;;;31.99;24.86719
59987;BME280;46181;51.498;5.392;2023-06-26T13:56:13;101773.7;;;32.12;24.77832
59987;BME280;46181;51.498;5.392;2023-06-26T14:00:43;101779.4;;;32.16;24.9248
59987;BME280;46181;51.498;5.392;2023-06-26T14:05:13;101783.5;;;32.16;25.06738
59987;BME280;46181;51.498;5.392;2023-06-26T14:09:43;101790.6;;;32.54;24.8252
59987;BME280;46181;51.498;5.392;2023-06-26T14:14:13;101795.8;;;32.48;24.4043
59987;BME280;46181;51.498;5.392;2023-06-26T14:18:43;101798.5;;;32.03;24.5957
59987;BME280;46181;51.498;5.392;2023-06-26T14:23:13;101801.6;;;31.77;25.11816
59987;BME280;46181;51.498;5.392;2023-06-26T14:27:43;101793.4;;;31.76;24.69922
59987;BME280;46181;51.498;5.392;2023-06-26T14:32:13;101795;;;31.72;24.78125
59987;BME280;46181;51.498;5.392;2023-06-26T14:36:43;101803.2;;;31.75;25.0332
59987;BME280;46181;51.498;5.392;2023-06-26T14:41:13;101801.1;;;31.99;25.09375
59987;BME280;46181;51.498;5.392;2023-06-26T14:45:43;101803.6;;;32.06;24.75195
59987;BME280;46181;51.498;5.392;2023-06-26T14:50:13;101804.9;;;32.05;24.63184
59987;BME280;46181;51.498;5.392;2023-06-26T14:54:43;101812.6;;;32.08;24.38281
59987;BME280;46181;51.498;5.392;2023-06-26T14:59:13;101802;;;32.11;24.40918
59987;BME280;46181;51.498;5.392;2023-06-26T15:03:43;101808;;;31.99;24.73535
59987;BME280;46181;51.498;5.392;2023-06-26T15:08:13;101808.4;;;31.75;25.06836
59987;BME280;46181;51.498;5.392;2023-06-26T15:12:43;101809.3;;;31.43;25.02734
59987;BME280;46181;51.498;5.392;2023-06-26T15:17:13;101808.7;;;31.01;25.43262
59987;BME280;46181;51.498;5.392;2023-06-26T15:21:43;101811.5;;;30.69;25.59375
59987;BME280;46181;51.498;5.392;2023-06-26T15:26:13;101807.8;;;30.6;25.62402
59987;BME280;46181;51.498;5.392;2023-06-26T15:30:43;101799.5;;;30.59;25.46875
59987;BME280;46181;51.498;5.392;2023-06-26T15:35:13;101810.4;;;30.76;25.44238
59987;BME280;46181;51.498;5.392;2023-06-26T15:39:43;101810.2;;;31.08;25.46094
59987;BME280;46181;51.498;5.392;2023-06-26T15:44:13;101808.2;;;31.17;24.90527
59987;BME280;46181;51.498;5.392;2023-06-26T15:48:43;101809.1;;;31.28;24.59082
59987;BME280;46181;51.498;5.392;2023-06-26T15:53:13;101807.3;;;31.7;24.32715
59987;BME280;46181;51.498;5.392;2023-06-26T15:57:43;101807.6;;;31.78;23.54395
59987;BME280;46181;51.498;5.392;2023-06-26T16:02:13;101801.1;;;31.63;23.57227
59987;BME280;46181;51.498;5.392;2023-06-26T16:06:43;101804.7;;;31.48;24.0293
59987;BME280;46181;51.498;5.392;2023-06-26T16:11:13;101803;;;31.75;23.60156
59987;BME280;46181;51.498;5.392;2023-06-26T16:15:43;101797.1;;;32.45;23.05273
59987;BME280;46181;51.498;5.392;2023-06-26T16:20:14;101800.5;;;33.38;22.00977
59987;BME280;46181;51.498;5.392;2023-06-26T16:24:43;101793.5;;;32.84;22.2002
59987;BME280;46181;51.498;5.392;2023-06-26T16:29:13;101792.5;;;33.89;21.14746
59987;BME280;46181;51.498;5.392;2023-06-26T16:33:43;101792;;;33.78;20.65039
59987;BME280;46181;51.498;5.392;2023-06-26T16:38:14;101796.2;;;33.34;21.63672
59987;BME280;46181;51.498;5.392;2023-06-26T16:42:43;101782.8;;;35.39;19.61621
59987;BME280;46181;51.498;5.392;2023-06-26T16:47:13;101781.3;;;36.43;18.24805
59987;BME280;46181;51.498;5.392;2023-06-26T16:51:43;101789.5;;;34.79;19.42188
59987;BME280;46181;51.498;5.392;2023-06-26T16:56:13;101792.8;;;33.34;20.66699
59987;BME280;46181;51.498;5.392;2023-06-26T17:00:43;101791.2;;;32.33;21.42188
59987;BME280;46181;51.498;5.392;2023-06-26T17:05:13;101779.5;;;31.53;22.33887
59987;BME280;46181;51.498;5.392;2023-06-26T17:09:43;101796.2;;;31.1;22.88965
59987;BME280;46181;51.498;5.392;2023-06-26T17:14:13;101803.4;;;30.78;23.4209
59987;BME280;46181;51.498;5.392;2023-06-26T17:18:43;101797.6;;;30.66;24.14063
59987;BME280;46181;51.498;5.392;2023-06-26T17:23:13;101802.2;;;30.6;24.39941
59987;BME280;46181;51.498;5.392;2023-06-26T17:27:43;101800.7;;;30.23;24.89063
59987;BME280;46181;51.498;5.392;2023-06-26T17:32:13;101802.1;;;29.89;25.39355
59987;BME280;46181;51.498;5.392;2023-06-26T17:36:43;101799.9;;;29.73;25.74121
59987;BME280;46181;51.498;5.392;2023-06-26T17:41:13;101802.8;;;29.45;26.11621
59987;BME280;46181;51.498;5.392;2023-06-26T17:45:43;101808.6;;;29.19;26.55273
59987;BME280;46181;51.498;5.392;2023-06-26T17:50:14;101817.6;;;29;26.58789
59987;BME280;46181;51.498;5.392;2023-06-26T17:54:43;101819;;;28.86;26.72266
59987;BME280;46181;51.498;5.392;2023-06-26T17:59:13;101820.7;;;28.74;27.02246
59987;BME280;46181;51.498;5.392;2023-06-26T18:03:43;101824.6;;;28.52;27.00977
59987;BME280;46181;51.498;5.392;2023-06-26T18:08:13;101827;;;28.29;27.45703
59987;BME280;46181;51.498;5.392;2023-06-26T18:12:43;101832.4;;;28.21;27.59375
59987;BME280;46181;51.498;5.392;2023-06-26T18:17:13;101834.9;;;28.06;27.86816
59987;BME280;46181;51.498;5.392;2023-06-26T18:21:43;101834.2;;;27.95;28.14453
59987;BME280;46181;51.498;5.392;2023-06-26T18:26:13;101845.1;;;27.83;28.08984
59987;BME280;46181;51.498;5.392;2023-06-26T18:30:43;101844.3;;;27.75;28.55762
59987;BME280;46181;51.498;5.392;2023-06-26T18:35:13;101849.3;;;27.63;28.50391
59987;BME280;46181;51.498;5.392;2023-06-26T18:39:43;101847.3;;;27.54;28.61523
59987;BME280;46181;51.498;5.392;2023-06-26T18:44:13;101851;;;27.47;28.74023
59987;BME280;46181;51.498;5.392;2023-06-26T18:48:43;101845.4;;;27.35;29.14648
59987;BME280;46181;51.498;5.392;2023-06-26T18:53:13;101847.1;;;27.28;29.40039
59987;BME280;46181;51.498;5.392;2023-06-26T18:57:43;101854.4;;;27.19;29.52441
59987;BME280;46181;51.498;5.392;2023-06-26T19:02:14;101857.1;;;27.08;29.84766
59987;BME280;46181;51.498;5.392;2023-06-26T19:06:43;101863.7;;;26.99;30.14746
59987;BME280;46181;51.498;5.392;2023-06-26T19:11:15;101856.3;;;26.84;30.49121
59987;BME280;46181;51.498;5.392;2023-06-26T19:15:43;101862.9;;;26.77;30.78027
59987;BME280;46181;51.498;5.392;2023-06-26T19:20:14;101870.6;;;26.65;31.13672
59987;BME280;46181;51.498;5.392;2023-06-26T19:24:43;101870.3;;;26.56;31.38965
59987;BME280;46181;51.498;5.392;2023-06-26T19:29:13;101871.6;;;26.47;31.74805
59987;BME280;46181;51.498;5.392;2023-06-26T19:33:43;101876.3;;;26.4;32.00195
59987;BME280;46181;51.498;5.392;2023-06-26T19:38:13;101876.2;;;26.32;32.17188
59987;BME280;46181;51.498;5.392;2023-06-26T19:42:43;101878.9;;;26.27;32.42773
59987;BME280;46181;51.498;5.392;2023-06-26T19:47:13;101883.8;;;26.14;32.64063
59987;BME280;46181;51.498;5.392;2023-06-26T19:51:43;101890.3;;;26.01;32.86719
59987;BME280;46181;51.498;5.392;2023-06-26T19:56:13;101889.6;;;25.91;33.12988
59987;BME280;46181;51.498;5.392;2023-06-26T20:00:43;101897.2;;;25.84;33.37109
59987;BME280;46181;51.498;5.392;2023-06-26T20:05:13;101896;;;25.73;33.66895
59987;BME280;46181;51.498;5.392;2023-06-26T20:09:45;101907.8;;;25.58;33.96191
59987;BME280;46181;51.498;5.392;2023-06-26T20:14:13;101906;;;25.44;34.25586
59987;BME280;46181;51.498;5.392;2023-06-26T20:18:43;101908.9;;;25.32;34.63379
59987;BME280;46181;51.498;5.392;2023-06-26T20:23:14;101919.8;;;25.17;34.99805
59987;BME280;46181;51.498;5.392;2023-06-26T20:27:43;101918.2;;;25.03;35.21973
59987;BME280;46181;51.498;5.392;2023-06-26T20:32:13;101920.4;;;24.86;35.74512
59987;BME280;46181;51.498;5.392;2023-06-26T20:36:43;101915.6;;;24.7;35.9082
59987;BME280;46181;51.498;5.392;2023-06-26T20:41:14;101922.4;;;24.6;36.18066
59987;BME280;46181;51.498;5.392;2023-06-26T20:45:44;101924.6;;;24.47;36.5791
59987;BME280;46181;51.498;5.392;2023-06-26T20:50:15;101927.2;;;24.33;36.96582
59987;BME280;46181;51.498;5.392;2023-06-26T20:54:44;101928.8;;;24.25;37.27441
59987;BME280;46181;51.498;5.392;2023-06-26T20:59:13;101927.6;;;24.14;37.5
59987;BME280;46181;51.498;5.392;2023-06-26T21:03:43;101924.1;;;24.04;37.61914
59987;BME280;46181;51.498;5.392;2023-06-26T21:08:13;101926.9;;;23.95;37.97363
59987;BME280;46181;51.498;5.392;2023-06-26T21:12:43;101921.9;;;23.87;38.13086
59987;BME280;46181;51.498;5.392;2023-06-26T21:17:13;101918.9;;;23.8;38.2998
59987;BME280;46181;51.498;5.392;2023-06-26T21:21:43;101925.6;;;23.73;38.39844
59987;BME280;46181;51.498;5.392;2023-06-26T21:26:13;101924.8;;;23.63;38.78613
59987;BME280;46181;51.498;5.392;2023-06-26T21:30:43;101929.4;;;23.51;38.99805
59987;BME280;46181;51.498;5.392;2023-06-26T21:35:14;101924.2;;;23.38;39.3125
59987;BME280;46181;51.498;5.392;2023-06-26T21:39:43;101924.3;;;23.3;39.51563
59987;BME280;46181;51.498;5.392;2023-06-26T21:44:13;101929.7;;;23.2;39.87891
59987;BME280;46181;51.498;5.392;2023-06-26T21:48:43;101932.2;;;23.1;40.18457
59987;BME280;46181;51.498;5.392;2023-06-26T21:53:13;101933.8;;;22.99;40.44238
59987;BME280;46181;51.498;5.392;2023-06-26T21:57:43;101940.3;;;22.9;40.62012
59987;BME280;46181;51.498;5.392;2023-06-26T22:02:13;101938.4;;;22.77;40.7959
59987;BME280;46181;51.498;5.392;2023-06-26T22:06:43;101932.6;;;22.68;40.87988
59987;BME280;46181;51.498;5.392;2023-06-26T22:11:13;101936.2;;;22.6;40.97656
59987;BME280;46181;51.498;5.392;2023-06-26T22:15:43;101930.7;;;22.53;41.13379
59987;BME280;46181;51.498;5.392;2023-06-26T22:20:14;101930.2;;;22.45;41.3125
59987;BME280;46181;51.498;5.392;2023-06-26T22:24:43;101925.4;;;22.38;41.38672
59987;BME280;46181;51.498;5.392;2023-06-26T22:29:13;101928;;;22.3;41.55371
59987;BME280;46181;51.498;5.392;2023-06-26T22:33:43;101923;;;22.22;41.68555
59987;BME280;46181;51.498;5.392;2023-06-26T22:38:13;101913.8;;;22.12;41.88574
59987;BME280;46181;51.498;5.392;2023-06-26T22:42:44;101917.8;;;22.06;42.13574
59987;BME280;46181;51.498;5.392;2023-06-26T22:47:13;101917.8;;;22.02;42.43359
59987;BME280;46181;51.498;5.392;2023-06-26T22:51:43;101917.4;;;21.98;42.58105
59987;BME280;46181;51.498;5.392;2023-06-26T22:56:14;101916.2;;;21.97;42.78906
59987;BME280;46181;51.498;5.392;2023-06-26T23:00:43;101916.4;;;21.93;43.09766
59987;BME280;46181;51.498;5.392;2023-06-26T23:05:13;101921.6;;;21.86;43.25391
59987;BME280;46181;51.498;5.392;2023-06-26T23:09:43;101916.2;;;21.8;43.49219
59987;BME280;46181;51.498;5.392;2023-06-26T23:14:13;101916.7;;;21.76;43.70801
59987;BME280;46181;51.498;5.392;2023-06-26T23:18:43;101919.4;;;21.71;43.95801
59987;BME280;46181;51.498;5.392;2023-06-26T23:23:13;101917.8;;;21.7;44.02734
59987;BME280;46181;51.498;5.392;2023-06-26T23:27:43;101916;;;21.7;44.35059
59987;BME280;46181;51.498;5.392;2023-06-26T23:32:14;101912.1;;;21.69;44.55859
59987;BME280;46181;51.498;5.392;2023-06-26T23:36:43;101905.5;;;21.7;44.6875
59987;BME280;46181;51.498;5.392;2023-06-26T23:41:13;101907.5;;;21.7;44.89551
59987;BME280;46181;51.498;5.392;2023-06-26T23:45:43;101901.7;;;21.7;45.11621
59987;BME280;46181;51.498;5.392;2023-06-26T23:50:14;101905.6;;;21.67;45.27539
59987;BME280;46181;51.498;5.392;2023-06-26T23:54:43;101903.6;;;21.7;45.46387
59987;BME280;46181;51.498;5.392;2023-06-26T23:59:13;101903.2;;;21.68;45.625
